sensor_id;sensor_type;location;lat;lon;timestamp;pressure;altitude;pressure_sealevel;temperature;humidity
72428;BME280;60419;48.880;18.036;2023-02-02T00:00:47;98594.56;;;3.44;62.58
72428;BME280;60419;48.880;18.036;2023-02-02T00:03:32;98563.63;;;3.07;65.11
72428;BME280;60419;48.880;18.036;2023-02-02T00:06:22;98573.75;;;2.74;67.19
72428;BME280;60419;48.880;18.036;2023-02-02T00:09:08;98573.97;;;2.62;66.10
72428;BME280;60419;48.880;18.036;2023-02-02T00:11:55;98572.13;;;2.47;67.37
72428;BME280;60419;48.880;18.036;2023-02-02T00:14:41;98592.66;;;2.52;66.52
72428;BME280;60419;48.880;18.036;2023-02-02T00:17:26;98603.81;;;2.49;67.58
72428;BME280;60419;48.880;18.036;2023-02-02T00:20:12;98587.84;;;2.54;67.93
72428;BME280;60419;48.880;18.036;2023-02-02T00:22:57;98586.47;;;2.46;68.55
72428;BME280;60419;48.880;18.036;2023-02-02T00:25:42;98573.97;;;2.42;69.00
72428;BME280;60419;48.880;18.036;2023-02-02T00:28:27;98574.00;;;2.52;68.38
72428;BME280;60419;48.880;18.036;2023-02-02T00:31:13;98578.22;;;2.43;67.92
72428;BME280;60419;48.880;18.036;2023-02-02T00:33:58;98580.69;;;2.80;66.15
72428;BME280;60419;48.880;18.036;2023-02-02T00:36:44;98582.53;;;2.80;65.88
72428;BME280;60419;48.880;18.036;2023-02-02T00:39:30;98587.63;;;2.81;65.99
72428;BME280;60419;48.880;18.036;2023-02-02T00:42:15;98602.78;;;2.55;66.97
72428;BME280;60419;48.880;18.036;2023-02-02T00:45:02;98611.31;;;2.52;67.10
72428;BME280;60419;48.880;18.036;2023-02-02T00:48:02;98618.31;;;2.84;65.90
72428;BME280;60419;48.880;18.036;2023-02-02T00:50:48;98621.75;;;2.79;66.04
72428;BME280;60419;48.880;18.036;2023-02-02T00:53:33;98611.66;;;3.07;65.07
72428;BME280;60419;48.880;18.036;2023-02-02T00:56:18;98610.31;;;3.20;65.22
72428;BME280;60419;48.880;18.036;2023-02-02T00:59:04;98607.66;;;2.99;65.22
72428;BME280;60419;48.880;18.036;2023-02-02T01:01:49;98609.50;;;2.73;65.31
72428;BME280;60419;48.880;18.036;2023-02-02T01:04:34;98605.25;;;2.98;65.04
72428;BME280;60419;48.880;18.036;2023-02-02T01:07:20;98616.47;;;3.00;64.51
72428;BME280;60419;48.880;18.036;2023-02-02T01:10:07;98601.78;;;3.28;64.25
72428;BME280;60419;48.880;18.036;2023-02-02T01:12:53;98603.91;;;3.21;64.08
72428;BME280;60419;48.880;18.036;2023-02-02T01:15:39;98607.34;;;3.62;63.10
72428;BME280;60419;48.880;18.036;2023-02-02T01:18:24;98604.97;;;3.35;63.35
72428;BME280;60419;48.880;18.036;2023-02-02T01:21:11;98594.28;;;3.14;63.32
72428;BME280;60419;48.880;18.036;2023-02-02T01:23:56;98594.81;;;3.32;63.21
72428;BME280;60419;48.880;18.036;2023-02-02T01:26:42;98594.53;;;3.64;62.25
72428;BME280;60419;48.880;18.036;2023-02-02T01:29:27;98604.16;;;3.55;62.02
72428;BME280;60419;48.880;18.036;2023-02-02T01:32:12;98597.47;;;3.52;61.63
72428;BME280;60419;48.880;18.036;2023-02-02T01:34:58;98591.31;;;3.57;62.20
72428;BME280;60419;48.880;18.036;2023-02-02T01:37:43;98595.09;;;3.41;62.38
72428;BME280;60419;48.880;18.036;2023-02-02T01:40:28;98586.00;;;3.47;62.13
72428;BME280;60419;48.880;18.036;2023-02-02T01:49:15;98598.81;;;3.50;63.33
72428;BME280;60419;48.880;18.036;2023-02-02T01:52:01;98606.00;;;3.65;62.22
72428;BME280;60419;48.880;18.036;2023-02-02T01:54:50;98602.03;;;3.42;62.49
72428;BME280;60419;48.880;18.036;2023-02-02T01:57:55;98593.47;;;3.39;63.31
72428;BME280;60419;48.880;18.036;2023-02-02T02:00:42;98596.16;;;3.29;63.03
72428;BME280;60419;48.880;18.036;2023-02-02T02:03:30;98606.56;;;3.46;62.62
72428;BME280;60419;48.880;18.036;2023-02-02T02:06:17;98614.59;;;3.31;62.52
72428;BME280;60419;48.880;18.036;2023-02-02T02:09:04;98498.81;;;2.60;62.04
72428;BME280;60419;48.880;18.036;2023-02-02T02:11:52;98597.44;;;3.68;61.35
72428;BME280;60419;48.880;18.036;2023-02-02T02:14:38;98585.38;;;3.86;60.84
72428;BME280;60419;48.880;18.036;2023-02-02T02:27:48;98602.53;;;3.59;60.68
72428;BME280;60419;48.880;18.036;2023-02-02T02:30:42;98599.28;;;3.77;59.58
72428;BME280;60419;48.880;18.036;2023-02-02T02:33:43;98575.88;;;3.33;61.01
72428;BME280;60419;48.880;18.036;2023-02-02T02:39:38;98613.50;;;3.01;61.64
72428;BME280;60419;48.880;18.036;2023-02-02T02:42:27;98606.03;;;3.34;61.28
72428;BME280;60419;48.880;18.036;2023-02-02T02:45:16;98598.56;;;3.46;60.48
72428;BME280;60419;48.880;18.036;2023-02-02T02:48:02;98596.69;;;3.31;61.12
72428;BME280;60419;48.880;18.036;2023-02-02T02:50:48;98594.22;;;3.71;60.13
72428;BME280;60419;48.880;18.036;2023-02-02T02:53:35;98602.28;;;3.50;60.08
72428;BME280;60419;48.880;18.036;2023-02-02T02:56:31;98623.66;;;3.45;60.51
72428;BME280;60419;48.880;18.036;2023-02-02T03:00:24;98604.97;;;3.40;60.82
72428;BME280;60419;48.880;18.036;2023-02-02T03:08:57;98607.63;;;3.14;62.24
72428;BME280;60419;48.880;18.036;2023-02-02T03:11:45;98606.81;;;3.45;61.10
72428;BME280;60419;48.880;18.036;2023-02-02T03:14:34;98601.50;;;3.34;61.71
72428;BME280;60419;48.880;18.036;2023-02-02T03:17:20;98608.16;;;3.52;61.22
72428;BME280;60419;48.880;18.036;2023-02-02T03:20:05;98606.84;;;3.34;61.19
72428;BME280;60419;48.880;18.036;2023-02-02T03:22:51;98627.16;;;3.25;61.53
72428;BME280;60419;48.880;18.036;2023-02-02T03:25:36;98631.94;;;3.38;61.30
72428;BME280;60419;48.880;18.036;2023-02-02T03:28:23;98632.44;;;3.56;61.44
72428;BME280;60419;48.880;18.036;2023-02-02T03:31:08;98644.47;;;3.43;61.64
72428;BME280;60419;48.880;18.036;2023-02-02T03:33:55;98645.81;;;3.20;62.09
72428;BME280;60419;48.880;18.036;2023-02-02T03:36:40;98634.31;;;3.45;61.13
72428;BME280;60419;48.880;18.036;2023-02-02T03:39:25;98651.41;;;3.19;62.22
72428;BME280;60419;48.880;18.036;2023-02-02T03:42:11;98635.66;;;3.22;62.87
72428;BME280;60419;48.880;18.036;2023-02-02T03:44:56;98639.16;;;3.18;62.51
72428;BME280;60419;48.880;18.036;2023-02-02T03:47:41;98633.78;;;2.97;63.82
72428;BME280;60419;48.880;18.036;2023-02-02T03:50:27;98626.56;;;2.87;63.85
72428;BME280;60419;48.880;18.036;2023-02-02T03:53:12;98638.84;;;2.88;64.49
72428;BME280;60419;48.880;18.036;2023-02-02T03:55:57;98632.19;;;2.96;64.71
72428;BME280;60419;48.880;18.036;2023-02-02T03:58:42;98621.50;;;2.81;65.84
72428;BME280;60419;48.880;18.036;2023-02-02T04:01:28;98621.00;;;2.94;64.91
72428;BME280;60419;48.880;18.036;2023-02-02T04:04:14;98622.31;;;2.97;64.97
72428;BME280;60419;48.880;18.036;2023-02-02T04:06:59;98625.53;;;3.14;64.11
72428;BME280;60419;48.880;18.036;2023-02-02T04:09:45;98630.31;;;3.27;63.95
72428;BME280;60419;48.880;18.036;2023-02-02T04:12:31;98635.94;;;3.10;63.91
72428;BME280;60419;48.880;18.036;2023-02-02T04:15:16;98619.09;;;3.56;62.37
72428;BME280;60419;48.880;18.036;2023-02-02T04:18:01;98631.00;;;4.04;61.45
72428;BME280;60419;48.880;18.036;2023-02-02T04:20:47;98635.63;;;3.78;61.75
72428;BME280;60419;48.880;18.036;2023-02-02T04:23:32;98632.78;;;4.35;62.22
72428;BME280;60419;48.880;18.036;2023-02-02T04:26:17;98639.75;;;4.25;62.77
72428;BME280;60419;48.880;18.036;2023-02-02T04:29:03;98639.28;;;4.08;63.47
72428;BME280;60419;48.880;18.036;2023-02-02T04:31:48;98630.66;;;4.26;62.72
72428;BME280;60419;48.880;18.036;2023-02-02T04:34:34;98642.88;;;4.48;62.35
72428;BME280;60419;48.880;18.036;2023-02-02T04:37:19;98624.03;;;4.74;61.32
72428;BME280;60419;48.880;18.036;2023-02-02T04:40:05;98665.38;;;4.86;61.12
72428;BME280;60419;48.880;18.036;2023-02-02T04:42:50;98655.59;;;4.72;60.91
72428;BME280;60419;48.880;18.036;2023-02-02T04:45:36;98658.72;;;4.84;60.72
72428;BME280;60419;48.880;18.036;2023-02-02T04:48:21;98653.16;;;4.75;60.11
72428;BME280;60419;48.880;18.036;2023-02-02T04:51:10;98663.13;;;4.64;62.39
72428;BME280;60419;48.880;18.036;2023-02-02T04:53:56;98663.84;;;4.15;63.06
72428;BME280;60419;48.880;18.036;2023-02-02T04:56:41;98667.56;;;4.30;63.33
72428;BME280;60419;48.880;18.036;2023-02-02T04:59:27;98676.94;;;4.27;63.35
72428;BME280;60419;48.880;18.036;2023-02-02T05:02:14;98673.25;;;3.92;63.10
72428;BME280;60419;48.880;18.036;2023-02-02T05:04:59;98671.69;;;3.30;65.70
72428;BME280;60419;48.880;18.036;2023-02-02T05:07:44;98678.63;;;3.72;64.64
72428;BME280;60419;48.880;18.036;2023-02-02T05:10:30;98687.72;;;3.66;64.61
72428;BME280;60419;48.880;18.036;2023-02-02T05:13:15;98694.69;;;3.51;65.77
72428;BME280;60419;48.880;18.036;2023-02-02T05:16:00;98689.59;;;3.29;66.62
72428;BME280;60419;48.880;18.036;2023-02-02T05:18:54;98688.41;;;2.64;69.06
72428;BME280;60419;48.880;18.036;2023-02-02T05:21:40;98686.50;;;2.59;69.44
72428;BME280;60419;48.880;18.036;2023-02-02T05:24:25;98706.41;;;3.04;67.33
72428;BME280;60419;48.880;18.036;2023-02-02T05:27:11;98703.13;;;2.82;67.01
72428;BME280;60419;48.880;18.036;2023-02-02T05:29:57;98710.59;;;2.85;68.24
72428;BME280;60419;48.880;18.036;2023-02-02T05:32:42;98710.34;;;2.86;67.84
72428;BME280;60419;48.880;18.036;2023-02-02T05:35:27;98700.91;;;2.58;68.19
72428;BME280;60419;48.880;18.036;2023-02-02T05:38:13;98701.16;;;2.51;68.87
72428;BME280;60419;48.880;18.036;2023-02-02T05:40:59;98691.06;;;2.64;68.02
72428;BME280;60419;48.880;18.036;2023-02-02T05:43:45;98707.34;;;2.67;67.91
72428;BME280;60419;48.880;18.036;2023-02-02T05:46:30;98708.72;;;2.80;67.77
72428;BME280;60419;48.880;18.036;2023-02-02T05:49:15;98695.63;;;2.68;67.76
72428;BME280;60419;48.880;18.036;2023-02-02T05:52:01;98693.50;;;2.70;67.71
72428;BME280;60419;48.880;18.036;2023-02-02T05:54:46;98699.91;;;2.75;67.12
72428;BME280;60419;48.880;18.036;2023-02-02T05:57:31;98688.38;;;2.54;67.65
72428;BME280;60419;48.880;18.036;2023-02-02T06:00:17;98703.81;;;2.51;68.36
72428;BME280;60419;48.880;18.036;2023-02-02T06:03:03;98700.72;;;2.80;66.48
72428;BME280;60419;48.880;18.036;2023-02-02T06:05:48;98687.06;;;2.61;67.77
72428;BME280;60419;48.880;18.036;2023-02-02T06:08:34;98669.69;;;2.48;68.02
72428;BME280;60419;48.880;18.036;2023-02-02T06:11:20;98675.28;;;2.47;67.18
72428;BME280;60419;48.880;18.036;2023-02-02T06:14:05;98681.47;;;2.58;67.58
72428;BME280;60419;48.880;18.036;2023-02-02T06:16:51;98697.69;;;2.51;65.93
72428;BME280;60419;48.880;18.036;2023-02-02T06:19:36;98690.53;;;2.62;66.03
72428;BME280;60419;48.880;18.036;2023-02-02T06:22:22;98689.78;;;2.82;65.31
72428;BME280;60419;48.880;18.036;2023-02-02T06:25:08;98686.03;;;2.83;64.99
72428;BME280;60419;48.880;18.036;2023-02-02T06:27:58;98697.84;;;3.07;65.36
72428;BME280;60419;48.880;18.036;2023-02-02T06:30:43;98695.16;;;2.97;64.45
72428;BME280;60419;48.880;18.036;2023-02-02T06:33:29;98695.38;;;2.85;64.53
72428;BME280;60419;48.880;18.036;2023-02-02T06:36:14;98695.09;;;2.71;64.21
72428;BME280;60419;48.880;18.036;2023-02-02T06:38:59;98688.44;;;2.74;64.49
72428;BME280;60419;48.880;18.036;2023-02-02T06:41:46;98697.53;;;2.83;64.86
72428;BME280;60419;48.880;18.036;2023-02-02T06:44:32;98699.06;;;2.64;64.60
72428;BME280;60419;48.880;18.036;2023-02-02T06:47:17;98703.88;;;2.67;64.87
72428;BME280;60419;48.880;18.036;2023-02-02T06:50:03;98720.66;;;2.62;65.28
72428;BME280;60419;48.880;18.036;2023-02-02T06:52:49;98694.44;;;2.44;65.72
72428;BME280;60419;48.880;18.036;2023-02-02T06:55:35;98684.25;;;2.25;65.78
72428;BME280;60419;48.880;18.036;2023-02-02T06:58:20;98724.41;;;2.61;65.28
72428;BME280;60419;48.880;18.036;2023-02-02T07:01:10;98706.75;;;2.50;65.79
72428;BME280;60419;48.880;18.036;2023-02-02T07:03:56;98730.03;;;2.75;65.15
72428;BME280;60419;48.880;18.036;2023-02-02T07:06:41;98736.63;;;2.47;65.22
72428;BME280;60419;48.880;18.036;2023-02-02T07:09:26;98739.06;;;2.64;65.37
72428;BME280;60419;48.880;18.036;2023-02-02T07:12:12;98734.00;;;2.67;65.12
72428;BME280;60419;48.880;18.036;2023-02-02T07:14:57;98736.19;;;2.76;64.33
72428;BME280;60419;48.880;18.036;2023-02-02T07:17:43;98738.06;;;2.85;64.33
72428;BME280;60419;48.880;18.036;2023-02-02T07:20:29;98749.91;;;3.10;63.60
72428;BME280;60419;48.880;18.036;2023-02-02T07:23:14;98708.38;;;2.61;64.02
72428;BME280;60419;48.880;18.036;2023-02-02T07:26:07;98750.41;;;2.97;63.65
72428;BME280;60419;48.880;18.036;2023-02-02T07:28:53;98747.47;;;3.08;63.60
72428;BME280;60419;48.880;18.036;2023-02-02T07:31:39;98743.53;;;3.26;62.77
72428;BME280;60419;48.880;18.036;2023-02-02T07:34:24;98746.72;;;3.23;61.91
72428;BME280;60419;48.880;18.036;2023-02-02T07:37:10;98756.06;;;3.21;62.58
72428;BME280;60419;48.880;18.036;2023-02-02T07:39:55;98753.09;;;3.22;62.79
72428;BME280;60419;48.880;18.036;2023-02-02T07:42:40;98765.94;;;3.20;62.36
72428;BME280;60419;48.880;18.036;2023-02-02T07:45:25;98759.50;;;3.11;62.32
72428;BME280;60419;48.880;18.036;2023-02-02T07:48:11;98758.16;;;3.08;62.96
72428;BME280;60419;48.880;18.036;2023-02-02T07:51:00;98748.84;;;3.21;62.32
72428;BME280;60419;48.880;18.036;2023-02-02T07:53:49;98753.94;;;3.28;62.47
72428;BME280;60419;48.880;18.036;2023-02-02T07:56:36;98768.59;;;3.10;62.82
72428;BME280;60419;48.880;18.036;2023-02-02T07:59:22;98750.94;;;3.09;63.02
72428;BME280;60419;48.880;18.036;2023-02-02T08:02:08;98757.31;;;2.92;63.86
72428;BME280;60419;48.880;18.036;2023-02-02T08:04:54;98751.78;;;3.25;63.29
72428;BME280;60419;48.880;18.036;2023-02-02T08:07:39;98765.16;;;3.35;63.14
72428;BME280;60419;48.880;18.036;2023-02-02T08:10:24;98744.03;;;3.18;62.82
72428;BME280;60419;48.880;18.036;2023-02-02T08:13:10;98754.69;;;3.03;64.01
72428;BME280;60419;48.880;18.036;2023-02-02T08:15:58;98749.56;;;2.81;64.67
72428;BME280;60419;48.880;18.036;2023-02-02T08:18:43;98760.56;;;3.10;63.40
72428;BME280;60419;48.880;18.036;2023-02-02T08:21:32;98759.22;;;3.07;64.25
72428;BME280;60419;48.880;18.036;2023-02-02T08:24:17;98762.22;;;3.36;63.98
72428;BME280;60419;48.880;18.036;2023-02-02T08:27:03;98754.44;;;3.20;63.49
72428;BME280;60419;48.880;18.036;2023-02-02T08:29:48;98772.09;;;3.31;63.39
72428;BME280;60419;48.880;18.036;2023-02-02T08:32:33;98778.00;;;3.38;63.13
72428;BME280;60419;48.880;18.036;2023-02-02T08:35:19;98750.44;;;3.12;63.06
72428;BME280;60419;48.880;18.036;2023-02-02T08:38:05;98763.25;;;3.10;63.36
72428;BME280;60419;48.880;18.036;2023-02-02T08:40:51;98772.16;;;3.56;63.09
72428;BME280;60419;48.880;18.036;2023-02-02T08:43:37;98778.53;;;3.50;62.51
72428;BME280;60419;48.880;18.036;2023-02-02T08:46:23;98773.47;;;3.44;62.24
72428;BME280;60419;48.880;18.036;2023-02-02T08:49:12;98773.16;;;3.40;63.50
72428;BME280;60419;48.880;18.036;2023-02-02T08:51:57;98779.03;;;3.32;62.33
72428;BME280;60419;48.880;18.036;2023-02-02T08:54:42;98776.09;;;3.33;62.22
72428;BME280;60419;48.880;18.036;2023-02-02T08:57:28;98781.44;;;3.23;62.42
72428;BME280;60419;48.880;18.036;2023-02-02T09:00:17;98778.50;;;3.35;62.83
72428;BME280;60419;48.880;18.036;2023-02-02T09:03:02;98765.44;;;3.33;62.25
72428;BME280;60419;48.880;18.036;2023-02-02T09:05:47;98770.47;;;3.30;61.85
72428;BME280;60419;48.880;18.036;2023-02-02T09:08:33;98765.72;;;3.47;61.02
72428;BME280;60419;48.880;18.036;2023-02-02T09:11:19;98786.53;;;3.55;61.01
72428;BME280;60419;48.880;18.036;2023-02-02T09:14:05;98786.81;;;3.49;60.95
72428;BME280;60419;48.880;18.036;2023-02-02T09:16:52;98782.31;;;3.70;60.48
72428;BME280;60419;48.880;18.036;2023-02-02T09:19:37;98797.50;;;3.69;61.18
72428;BME280;60419;48.880;18.036;2023-02-02T09:22:22;98805.25;;;3.66;61.10
72428;BME280;60419;48.880;18.036;2023-02-02T09:25:08;98805.22;;;3.50;61.38
72428;BME280;60419;48.880;18.036;2023-02-02T09:27:53;98801.00;;;3.59;61.71
72428;BME280;60419;48.880;18.036;2023-02-02T09:30:38;98807.13;;;3.55;61.85
72428;BME280;60419;48.880;18.036;2023-02-02T09:33:23;98791.13;;;3.70;61.95
72428;BME280;60419;48.880;18.036;2023-02-02T09:36:14;98803.41;;;3.81;60.74
72428;BME280;60419;48.880;18.036;2023-02-02T09:39:00;98799.94;;;4.12;58.47
72428;BME280;60419;48.880;18.036;2023-02-02T09:48:11;98801.53;;;3.97;58.90
72428;BME280;60419;48.880;18.036;2023-02-02T09:51:05;98754.78;;;3.49;58.91
72428;BME280;60419;48.880;18.036;2023-02-02T09:53:56;98811.69;;;4.00;57.31
72428;BME280;60419;48.880;18.036;2023-02-02T09:56:47;98801.53;;;3.87;58.34
72428;BME280;60419;48.880;18.036;2023-02-02T09:59:39;98804.19;;;4.08;57.87
72428;BME280;60419;48.880;18.036;2023-02-02T10:02:30;98800.47;;;4.03;56.99
72428;BME280;60419;48.880;18.036;2023-02-02T10:05:23;98797.78;;;4.19;57.34
72428;BME280;60419;48.880;18.036;2023-02-02T10:08:17;98804.72;;;4.20;56.76
72428;BME280;60419;48.880;18.036;2023-02-02T10:11:23;98812.22;;;4.08;56.85
72428;BME280;60419;48.880;18.036;2023-02-02T10:14:18;98807.94;;;4.17;56.83
72428;BME280;60419;48.880;18.036;2023-02-02T10:17:25;98815.97;;;3.86;57.38
72428;BME280;60419;48.880;18.036;2023-02-02T10:23:29;98774.56;;;3.89;57.63
72428;BME280;60419;48.880;18.036;2023-02-02T10:26:22;98781.19;;;4.37;56.38
72428;BME280;60419;48.880;18.036;2023-02-02T10:39:02;98812.75;;;4.35;55.83
72428;BME280;60419;48.880;18.036;2023-02-02T10:42:04;98784.16;;;4.05;56.15
72428;BME280;60419;48.880;18.036;2023-02-02T10:45:16;98792.88;;;4.62;55.79
72428;BME280;60419;48.880;18.036;2023-02-02T10:48:12;98802.53;;;4.53;55.80
72428;BME280;60419;48.880;18.036;2023-02-02T10:51:00;98795.31;;;4.58;56.77
72428;BME280;60419;48.880;18.036;2023-02-02T10:53:52;98807.66;;;4.18;57.04
72428;BME280;60419;48.880;18.036;2023-02-02T10:56:45;98813.28;;;4.32;56.06
72428;BME280;60419;48.880;18.036;2023-02-02T10:59:57;98811.09;;;4.55;55.69
72428;BME280;60419;48.880;18.036;2023-02-02T11:02:48;98802.19;;;4.80;55.32
72428;BME280;60419;48.880;18.036;2023-02-02T11:05:34;98800.81;;;4.87;55.34
72428;BME280;60419;48.880;18.036;2023-02-02T11:08:40;98808.44;;;4.29;56.20
72428;BME280;60419;48.880;18.036;2023-02-02T11:11:30;98794.84;;;4.15;56.21
72428;BME280;60419;48.880;18.036;2023-02-02T11:14:29;98809.72;;;4.67;56.35
72428;BME280;60419;48.880;18.036;2023-02-02T11:17:19;98795.28;;;4.63;56.09
72428;BME280;60419;48.880;18.036;2023-02-02T11:20:31;98787.72;;;4.81;55.22
72428;BME280;60419;48.880;18.036;2023-02-02T11:23:19;98802.03;;;4.45;55.69
72428;BME280;60419;48.880;18.036;2023-02-02T11:26:05;98810.59;;;4.37;56.61
72428;BME280;60419;48.880;18.036;2023-02-02T11:28:54;98793.19;;;4.45;55.83
72428;BME280;60419;48.880;18.036;2023-02-02T11:31:40;98802.44;;;4.78;55.18
72428;BME280;60419;48.880;18.036;2023-02-02T11:34:27;98792.78;;;5.03;54.76
72428;BME280;60419;48.880;18.036;2023-02-02T11:37:20;98793.63;;;4.83;55.50
72428;BME280;60419;48.880;18.036;2023-02-02T11:43:19;98765.66;;;4.39;56.05
72428;BME280;60419;48.880;18.036;2023-02-02T11:46:19;98768.19;;;4.85;54.96
72428;BME280;60419;48.880;18.036;2023-02-02T11:49:12;98759.19;;;4.61;55.05
72428;BME280;60419;48.880;18.036;2023-02-02T11:52:03;98784.56;;;4.74;54.85
72428;BME280;60419;48.880;18.036;2023-02-02T11:54:51;98773.59;;;4.70;54.58
72428;BME280;60419;48.880;18.036;2023-02-02T11:57:37;98779.38;;;5.03;54.86
72428;BME280;60419;48.880;18.036;2023-02-02T12:00:23;98780.56;;;4.66;55.05
72428;BME280;60419;48.880;18.036;2023-02-02T12:03:22;98782.00;;;5.13;54.03
72428;BME280;60419;48.880;18.036;2023-02-02T12:09:24;98771.09;;;4.94;54.27
72428;BME280;60419;48.880;18.036;2023-02-02T12:18:25;98769.31;;;5.34;53.68
72428;BME280;60419;48.880;18.036;2023-02-02T12:24:29;98777.41;;;5.24;53.69
72428;BME280;60419;48.880;18.036;2023-02-02T12:39:08;98787.59;;;5.17;54.50
72428;BME280;60419;48.880;18.036;2023-02-02T12:45:28;98802.47;;;4.68;55.11
72428;BME280;60419;48.880;18.036;2023-02-02T12:49:19;98791.25;;;4.71;54.70
72428;BME280;60419;48.880;18.036;2023-02-02T13:01:06;98791.72;;;4.83;55.08
72428;BME280;60419;48.880;18.036;2023-02-02T13:13:11;98786.00;;;5.60;53.87
72428;BME280;60419;48.880;18.036;2023-02-02T13:16:05;98789.09;;;6.12;53.21
72428;BME280;60419;48.880;18.036;2023-02-02T13:18:55;98793.13;;;5.35;54.42
72428;BME280;60419;48.880;18.036;2023-02-02T13:21:44;98798.97;;;4.83;56.18
72428;BME280;60419;48.880;18.036;2023-02-02T13:24:33;98796.72;;;5.16;55.14
72428;BME280;60419;48.880;18.036;2023-02-02T13:27:20;98800.94;;;5.27;55.78
72428;BME280;60419;48.880;18.036;2023-02-02T13:30:23;98786.25;;;5.19;55.52
72428;BME280;60419;48.880;18.036;2023-02-02T13:33:17;98792.63;;;5.33;54.46
72428;BME280;60419;48.880;18.036;2023-02-02T13:36:20;98810.81;;;5.37;54.32
72428;BME280;60419;48.880;18.036;2023-02-02T13:39:20;98803.63;;;5.71;53.81
72428;BME280;60419;48.880;18.036;2023-02-02T13:42:18;98816.97;;;5.37;53.39
72428;BME280;60419;48.880;18.036;2023-02-02T13:45:30;98783.81;;;5.23;54.83
72428;BME280;60419;48.880;18.036;2023-02-02T14:00:17;98813.63;;;5.55;53.42
72428;BME280;60419;48.880;18.036;2023-02-02T14:06:13;98827.06;;;5.50;52.96
72428;BME280;60419;48.880;18.036;2023-02-02T14:09:02;98834.09;;;5.36;53.70
72428;BME280;60419;48.880;18.036;2023-02-02T14:11:58;98834.81;;;4.97;55.49
72428;BME280;60419;48.880;18.036;2023-02-02T14:14:45;98876.13;;;4.40;61.21
72428;BME280;60419;48.880;18.036;2023-02-02T14:20:42;98853.91;;;3.78;65.66
72428;BME280;60419;48.880;18.036;2023-02-02T14:23:51;98856.63;;;4.19;64.30
72428;BME280;60419;48.880;18.036;2023-02-02T14:26:45;98858.75;;;4.17;62.56
72428;BME280;60419;48.880;18.036;2023-02-02T14:41:04;98868.66;;;5.32;56.65
72428;BME280;60419;48.880;18.036;2023-02-02T14:43:55;98850.59;;;4.99;57.05
72428;BME280;60419;48.880;18.036;2023-02-02T14:46:40;98874.44;;;4.85;56.96
72428;BME280;60419;48.880;18.036;2023-02-02T14:49:32;98874.97;;;5.02;56.29
72428;BME280;60419;48.880;18.036;2023-02-02T14:52:22;98857.56;;;5.05;56.54
72428;BME280;60419;48.880;18.036;2023-02-02T14:55:18;98867.44;;;4.89;56.91
72428;BME280;60419;48.880;18.036;2023-02-02T14:58:05;98873.94;;;4.67;56.13
72428;BME280;60419;48.880;18.036;2023-02-02T15:01:00;98865.06;;;4.98;56.33
72428;BME280;60419;48.880;18.036;2023-02-02T15:03:55;98885.38;;;5.09;55.68
72428;BME280;60419;48.880;18.036;2023-02-02T15:06:42;98886.78;;;4.65;56.62
72428;BME280;60419;48.880;18.036;2023-02-02T15:09:37;98891.06;;;4.51;56.31
72428;BME280;60419;48.880;18.036;2023-02-02T15:12:30;98879.56;;;4.76;55.83
72428;BME280;60419;48.880;18.036;2023-02-02T15:18:17;98910.28;;;4.84;56.36
72428;BME280;60419;48.880;18.036;2023-02-02T15:21:09;98895.06;;;4.69;56.81
72428;BME280;60419;48.880;18.036;2023-02-02T15:23:59;98934.94;;;4.65;56.95
72428;BME280;60419;48.880;18.036;2023-02-02T15:26:47;98926.66;;;4.46;57.43
72428;BME280;60419;48.880;18.036;2023-02-02T15:29:39;98943.50;;;4.67;57.04
72428;BME280;60419;48.880;18.036;2023-02-02T15:32:27;98946.16;;;4.67;56.96
72428;BME280;60419;48.880;18.036;2023-02-02T15:35:19;98943.25;;;4.43;58.28
72428;BME280;60419;48.880;18.036;2023-02-02T15:38:11;98952.59;;;4.46;58.97
72428;BME280;60419;48.880;18.036;2023-02-02T15:41:04;98933.88;;;4.36;59.32
72428;BME280;60419;48.880;18.036;2023-02-02T15:43:51;98966.22;;;4.39;59.57
72428;BME280;60419;48.880;18.036;2023-02-02T15:46:37;98968.38;;;4.53;59.78
72428;BME280;60419;48.880;18.036;2023-02-02T15:49:31;98972.38;;;4.30;60.64
72428;BME280;60419;48.880;18.036;2023-02-02T15:52:22;98986.00;;;4.23;60.79
72428;BME280;60419;48.880;18.036;2023-02-02T15:55:30;98991.91;;;4.25;61.19
72428;BME280;60419;48.880;18.036;2023-02-02T15:58:29;99004.75;;;4.38;60.98
72428;BME280;60419;48.880;18.036;2023-02-02T16:01:17;99010.56;;;4.04;61.48
72428;BME280;60419;48.880;18.036;2023-02-02T16:04:20;99013.50;;;4.13;61.97
72428;BME280;60419;48.880;18.036;2023-02-02T16:07:23;99002.09;;;4.64;71.21
72428;BME280;60419;48.880;18.036;2023-02-02T16:10:17;99029.69;;;5.00;59.76
72428;BME280;60419;48.880;18.036;2023-02-02T16:13:03;99033.41;;;5.09;58.47
72428;BME280;60419;48.880;18.036;2023-02-02T16:16:03;99029.06;;;4.21;60.78
72428;BME280;60419;48.880;18.036;2023-02-02T16:19:03;99043.78;;;4.39;60.97
72428;BME280;60419;48.880;18.036;2023-02-02T16:21:55;99034.19;;;4.54;60.34
72428;BME280;60419;48.880;18.036;2023-02-02T16:24:47;99061.47;;;4.51;60.12
72428;BME280;60419;48.880;18.036;2023-02-02T16:27:33;99065.19;;;4.39;60.70
72428;BME280;60419;48.880;18.036;2023-02-02T16:30:31;99064.66;;;4.32;61.25
72428;BME280;60419;48.880;18.036;2023-02-02T16:33:38;99077.50;;;4.40;61.03
72428;BME280;60419;48.880;18.036;2023-02-02T16:36:27;99074.34;;;3.80;62.35
72428;BME280;60419;48.880;18.036;2023-02-02T16:39:20;99085.69;;;4.13;61.88
72428;BME280;60419;48.880;18.036;2023-02-02T16:42:09;99093.19;;;4.06;62.06
72428;BME280;60419;48.880;18.036;2023-02-02T16:44:58;99089.66;;;4.00;62.00
72428;BME280;60419;48.880;18.036;2023-02-02T16:47:44;99084.41;;;4.26;61.56
72428;BME280;60419;48.880;18.036;2023-02-02T16:50:30;99089.84;;;4.57;60.68
72428;BME280;60419;48.880;18.036;2023-02-02T16:53:22;99099.59;;;4.15;62.59
72428;BME280;60419;48.880;18.036;2023-02-02T16:56:08;99097.94;;;3.99;62.66
72428;BME280;60419;48.880;18.036;2023-02-02T16:58:56;99101.50;;;4.20;62.02
72428;BME280;60419;48.880;18.036;2023-02-02T17:01:47;99112.97;;;4.15;62.20